KAVC

Mecklenburg-Brunswick Regional Airport

South Hill, Virginia, USA
METAR KAVC 191455Z AUTO 25005KT 10SM CLR 03/M10 A3027 RMK AO2 T00251101
Observed Flight Rules
Jan-19 @ 14:55 UTC (33 minutes ago) Visual Flight Rules
Wind Visibility Clouds
250° at 5 knots 10 miles
  • Clear skies
Temperatures Readings
Current 3°C / 37°F
Dewpoint -10°C / 14°F
Humidity 38%
Altimeter 30.27" Hg
Pressure 1025 hPa
Elevation 135
METAR KAVC 191455Z AUTO 25005KT 10SM CLR 03/M10 A3027 RMK AO2 T00251101
Observed Flight Rules
Jan-19 @ 14:55 UTC
(33 minutes ago)
VFR
Wind Visibility
250° at 5 knots 10 miles
Clouds
  • Clear skies
Temperature Dewpoint
3°C / 37°F -10°C / 14°F
Humidity Altimeter Pressure
38% 30.27" Hg 1025 hPa